sensor_id;sensor_type;location;lat;lon;timestamp;temperature;humidity
15554;DHT22;7878;44.632;10.942;2022-08-26T00:01:35;27.80;92.70
15554;DHT22;7878;44.632;10.942;2022-08-26T00:04:00;27.80;92.60
15554;DHT22;7878;44.632;10.942;2022-08-26T00:06:26;27.80;92.40
15554;DHT22;7878;44.632;10.942;2022-08-26T00:08:53;27.80;92.60
15554;DHT22;7878;44.632;10.942;2022-08-26T00:11:19;27.80;92.50
15554;DHT22;7878;44.632;10.942;2022-08-26T00:13:45;27.80;92.50
15554;DHT22;7878;44.632;10.942;2022-08-26T00:16:11;27.80;92.40
15554;DHT22;7878;44.632;10.942;2022-08-26T00:18:37;27.80;92.60
15554;DHT22;7878;44.632;10.942;2022-08-26T00:21:04;27.70;92.40
15554;DHT22;7878;44.632;10.942;2022-08-26T00:23:30;27.70;92.40
15554;DHT22;7878;44.632;10.942;2022-08-26T00:25:56;27.70;92.30
15554;DHT22;7878;44.632;10.942;2022-08-26T00:28:21;27.70;92.30
15554;DHT22;7878;44.632;10.942;2022-08-26T00:30:47;27.70;92.40
15554;DHT22;7878;44.632;10.942;2022-08-26T00:33:14;27.70;92.30
15554;DHT22;7878;44.632;10.942;2022-08-26T00:35:41;27.60;92.30
15554;DHT22;7878;44.632;10.942;2022-08-26T00:38:07;27.50;92.30
15554;DHT22;7878;44.632;10.942;2022-08-26T00:40:41;27.50;92.20
15554;DHT22;7878;44.632;10.942;2022-08-26T00:43:07;27.60;92.70
15554;DHT22;7878;44.632;10.942;2022-08-26T00:45:48;27.50;92.30
15554;DHT22;7878;44.632;10.942;2022-08-26T00:48:17;27.50;92.30
15554;DHT22;7878;44.632;10.942;2022-08-26T00:51:07;27.50;92.40
15554;DHT22;7878;44.632;10.942;2022-08-26T00:53:38;27.50;93.30
15554;DHT22;7878;44.632;10.942;2022-08-26T00:56:18;27.50;92.30
15554;DHT22;7878;44.632;10.942;2022-08-26T00:58:45;27.50;92.70
15554;DHT22;7878;44.632;10.942;2022-08-26T01:01:13;27.50;92.30
15554;DHT22;7878;44.632;10.942;2022-08-26T01:03:39;27.50;92.30
15554;DHT22;7878;44.632;10.942;2022-08-26T01:06:06;27.50;92.30
15554;DHT22;7878;44.632;10.942;2022-08-26T01:08:33;27.50;92.30
15554;DHT22;7878;44.632;10.942;2022-08-26T01:11:00;27.40;92.30
15554;DHT22;7878;44.632;10.942;2022-08-26T01:13:28;27.40;92.30
15554;DHT22;7878;44.632;10.942;2022-08-26T01:15:56;27.40;92.40
15554;DHT22;7878;44.632;10.942;2022-08-26T01:18:22;27.40;92.40
15554;DHT22;7878;44.632;10.942;2022-08-26T01:20:59;27.40;92.40
15554;DHT22;7878;44.632;10.942;2022-08-26T01:23:32;27.40;92.90
15554;DHT22;7878;44.632;10.942;2022-08-26T01:26:04;27.40;92.50
15554;DHT22;7878;44.632;10.942;2022-08-26T01:28:32;27.30;92.60
15554;DHT22;7878;44.632;10.942;2022-08-26T01:30:58;27.40;92.50
15554;DHT22;7878;44.632;10.942;2022-08-26T01:33:33;27.40;92.30
15554;DHT22;7878;44.632;10.942;2022-08-26T01:36:02;27.40;92.90
15554;DHT22;7878;44.632;10.942;2022-08-26T01:38:27;27.30;92.30
15554;DHT22;7878;44.632;10.942;2022-08-26T01:40:53;27.30;92.50
15554;DHT22;7878;44.632;10.942;2022-08-26T01:43:22;27.20;92.40
15554;DHT22;7878;44.632;10.942;2022-08-26T01:45:50;27.20;92.50
15554;DHT22;7878;44.632;10.942;2022-08-26T01:48:25;27.20;92.60
15554;DHT22;7878;44.632;10.942;2022-08-26T01:50:52;27.20;92.90
15554;DHT22;7878;44.632;10.942;2022-08-26T01:53:20;27.20;92.50
15554;DHT22;7878;44.632;10.942;2022-08-26T01:55:51;27.20;92.70
15554;DHT22;7878;44.632;10.942;2022-08-26T01:58:25;27.20;92.80
15554;DHT22;7878;44.632;10.942;2022-08-26T02:00:52;27.20;93.00
15554;DHT22;7878;44.632;10.942;2022-08-26T02:03:19;27.10;92.60
15554;DHT22;7878;44.632;10.942;2022-08-26T02:08:13;27.10;92.60
15554;DHT22;7878;44.632;10.942;2022-08-26T02:10:39;27.10;92.60
15554;DHT22;7878;44.632;10.942;2022-08-26T02:13:07;27.10;92.50
15554;DHT22;7878;44.632;10.942;2022-08-26T02:15:33;27.10;92.50
15554;DHT22;7878;44.632;10.942;2022-08-26T02:18:00;27.10;92.80
15554;DHT22;7878;44.632;10.942;2022-08-26T02:20:27;27.00;92.60
15554;DHT22;7878;44.632;10.942;2022-08-26T02:22:54;27.00;92.80
15554;DHT22;7878;44.632;10.942;2022-08-26T02:25:44;27.00;92.70
15554;DHT22;7878;44.632;10.942;2022-08-26T02:28:12;27.00;93.70
15554;DHT22;7878;44.632;10.942;2022-08-26T02:30:39;27.00;92.80
15554;DHT22;7878;44.632;10.942;2022-08-26T02:33:05;27.00;92.60
15554;DHT22;7878;44.632;10.942;2022-08-26T02:35:32;27.00;92.60
15554;DHT22;7878;44.632;10.942;2022-08-26T02:37:58;26.90;92.60
15554;DHT22;7878;44.632;10.942;2022-08-26T02:40:28;26.90;92.70
15554;DHT22;7878;44.632;10.942;2022-08-26T02:42:55;26.90;92.80
15554;DHT22;7878;44.632;10.942;2022-08-26T02:45:21;26.90;92.60
15554;DHT22;7878;44.632;10.942;2022-08-26T02:47:47;26.90;92.90
15554;DHT22;7878;44.632;10.942;2022-08-26T02:50:13;26.80;92.90
15554;DHT22;7878;44.632;10.942;2022-08-26T02:52:39;26.80;92.90
15554;DHT22;7878;44.632;10.942;2022-08-26T02:55:05;26.90;92.90
15554;DHT22;7878;44.632;10.942;2022-08-26T02:57:31;26.80;92.90
15554;DHT22;7878;44.632;10.942;2022-08-26T02:59:58;26.80;92.90
15554;DHT22;7878;44.632;10.942;2022-08-26T03:02:25;26.80;93.10
15554;DHT22;7878;44.632;10.942;2022-08-26T03:04:52;26.80;92.90
15554;DHT22;7878;44.632;10.942;2022-08-26T03:07:17;26.80;92.90
15554;DHT22;7878;44.632;10.942;2022-08-26T03:09:44;26.80;93.00
15554;DHT22;7878;44.632;10.942;2022-08-26T03:12:09;26.80;93.20
15554;DHT22;7878;44.632;10.942;2022-08-26T03:14:36;26.80;93.20
15554;DHT22;7878;44.632;10.942;2022-08-26T03:17:03;26.80;93.20
15554;DHT22;7878;44.632;10.942;2022-08-26T03:19:29;26.80;93.30
15554;DHT22;7878;44.632;10.942;2022-08-26T03:21:57;26.80;93.40
15554;DHT22;7878;44.632;10.942;2022-08-26T03:24:24;26.80;93.60
15554;DHT22;7878;44.632;10.942;2022-08-26T03:26:50;26.80;93.60
15554;DHT22;7878;44.632;10.942;2022-08-26T03:29:15;26.80;93.70
15554;DHT22;7878;44.632;10.942;2022-08-26T03:31:59;26.70;93.80
15554;DHT22;7878;44.632;10.942;2022-08-26T03:34:26;26.70;93.90
15554;DHT22;7878;44.632;10.942;2022-08-26T03:36:52;26.70;94.00
15554;DHT22;7878;44.632;10.942;2022-08-26T03:39:18;26.70;94.10
15554;DHT22;7878;44.632;10.942;2022-08-26T03:41:44;26.70;94.00
15554;DHT22;7878;44.632;10.942;2022-08-26T03:44:10;26.70;94.10
15554;DHT22;7878;44.632;10.942;2022-08-26T03:46:37;26.70;94.10
15554;DHT22;7878;44.632;10.942;2022-08-26T03:49:03;26.70;94.20
15554;DHT22;7878;44.632;10.942;2022-08-26T03:51:31;26.70;94.30
15554;DHT22;7878;44.632;10.942;2022-08-26T03:53:57;26.60;94.40
15554;DHT22;7878;44.632;10.942;2022-08-26T03:56:23;26.60;95.00
15554;DHT22;7878;44.632;10.942;2022-08-26T03:58:49;26.60;94.50
15554;DHT22;7878;44.632;10.942;2022-08-26T04:01:15;26.60;94.30
15554;DHT22;7878;44.632;10.942;2022-08-26T04:03:40;26.60;94.70
15554;DHT22;7878;44.632;10.942;2022-08-26T04:06:30;26.60;94.50
15554;DHT22;7878;44.632;10.942;2022-08-26T04:08:58;26.60;95.20
15554;DHT22;7878;44.632;10.942;2022-08-26T04:11:26;26.60;94.80
15554;DHT22;7878;44.632;10.942;2022-08-26T04:13:58;26.50;95.10
15554;DHT22;7878;44.632;10.942;2022-08-26T04:16:25;26.50;94.90
15554;DHT22;7878;44.632;10.942;2022-08-26T04:18:51;26.40;95.00
15554;DHT22;7878;44.632;10.942;2022-08-26T04:21:17;26.30;95.10
15554;DHT22;7878;44.632;10.942;2022-08-26T04:23:43;26.20;95.30
15554;DHT22;7878;44.632;10.942;2022-08-26T04:26:08;26.20;95.10
15554;DHT22;7878;44.632;10.942;2022-08-26T04:28:34;26.20;95.20
15554;DHT22;7878;44.632;10.942;2022-08-26T04:31:01;26.20;95.30
15554;DHT22;7878;44.632;10.942;2022-08-26T04:33:27;26.20;95.40
15554;DHT22;7878;44.632;10.942;2022-08-26T04:36:02;26.10;95.30
15554;DHT22;7878;44.632;10.942;2022-08-26T04:38:28;26.10;96.40
15554;DHT22;7878;44.632;10.942;2022-08-26T04:40:54;26.00;95.50
15554;DHT22;7878;44.632;10.942;2022-08-26T04:43:20;26.00;95.60
15554;DHT22;7878;44.632;10.942;2022-08-26T04:45:46;26.10;95.80
15554;DHT22;7878;44.632;10.942;2022-08-26T04:48:12;26.00;95.70
15554;DHT22;7878;44.632;10.942;2022-08-26T04:50:37;26.00;96.00
15554;DHT22;7878;44.632;10.942;2022-08-26T04:53:03;25.90;96.00
15554;DHT22;7878;44.632;10.942;2022-08-26T04:55:29;25.80;95.90
15554;DHT22;7878;44.632;10.942;2022-08-26T04:57:55;25.80;96.60
15554;DHT22;7878;44.632;10.942;2022-08-26T05:00:21;25.60;96.20
15554;DHT22;7878;44.632;10.942;2022-08-26T05:02:47;25.50;96.30
15554;DHT22;7878;44.632;10.942;2022-08-26T05:05:13;25.50;96.40
15554;DHT22;7878;44.632;10.942;2022-08-26T05:07:39;25.40;96.50
15554;DHT22;7878;44.632;10.942;2022-08-26T05:10:06;25.40;96.50
15554;DHT22;7878;44.632;10.942;2022-08-26T05:12:32;25.40;96.40
15554;DHT22;7878;44.632;10.942;2022-08-26T05:14:58;25.50;96.30
15554;DHT22;7878;44.632;10.942;2022-08-26T05:17:24;25.60;96.20
15554;DHT22;7878;44.632;10.942;2022-08-26T05:19:51;25.70;96.20
15554;DHT22;7878;44.632;10.942;2022-08-26T05:22:17;25.80;96.20
15554;DHT22;7878;44.632;10.942;2022-08-26T05:24:43;25.80;96.20
15554;DHT22;7878;44.632;10.942;2022-08-26T05:27:11;25.80;96.30
15554;DHT22;7878;44.632;10.942;2022-08-26T05:29:38;25.80;96.20
15554;DHT22;7878;44.632;10.942;2022-08-26T05:32:04;25.80;96.40
15554;DHT22;7878;44.632;10.942;2022-08-26T05:34:30;25.80;96.30
15554;DHT22;7878;44.632;10.942;2022-08-26T05:36:56;25.70;96.40
15554;DHT22;7878;44.632;10.942;2022-08-26T05:39:22;25.70;96.50
15554;DHT22;7878;44.632;10.942;2022-08-26T05:41:49;25.80;96.50
15554;DHT22;7878;44.632;10.942;2022-08-26T05:44:15;25.80;96.70
15554;DHT22;7878;44.632;10.942;2022-08-26T05:46:44;25.80;96.50
15554;DHT22;7878;44.632;10.942;2022-08-26T05:49:11;25.90;96.60
15554;DHT22;7878;44.632;10.942;2022-08-26T05:51:37;25.90;96.40
15554;DHT22;7878;44.632;10.942;2022-08-26T05:54:03;26.00;96.50
15554;DHT22;7878;44.632;10.942;2022-08-26T05:56:31;26.00;96.50
15554;DHT22;7878;44.632;10.942;2022-08-26T05:58:57;26.10;96.50
15554;DHT22;7878;44.632;10.942;2022-08-26T06:01:25;26.20;96.60
15554;DHT22;7878;44.632;10.942;2022-08-26T06:03:55;26.20;96.70
15554;DHT22;7878;44.632;10.942;2022-08-26T06:06:24;26.30;96.70
15554;DHT22;7878;44.632;10.942;2022-08-26T06:08:51;26.30;96.60
15554;DHT22;7878;44.632;10.942;2022-08-26T06:11:19;26.30;96.70
15554;DHT22;7878;44.632;10.942;2022-08-26T06:13:45;26.40;96.70
15554;DHT22;7878;44.632;10.942;2022-08-26T06:16:14;26.40;96.60
15554;DHT22;7878;44.632;10.942;2022-08-26T06:18:42;26.40;97.00
15554;DHT22;7878;44.632;10.942;2022-08-26T06:21:26;26.30;96.70
15554;DHT22;7878;44.632;10.942;2022-08-26T06:23:54;26.50;97.30
15554;DHT22;7878;44.632;10.942;2022-08-26T06:26:40;26.50;96.70
15554;DHT22;7878;44.632;10.942;2022-08-26T06:29:06;26.60;96.60
15554;DHT22;7878;44.632;10.942;2022-08-26T06:31:34;26.70;96.60
15554;DHT22;7878;44.632;10.942;2022-08-26T06:34:00;26.60;96.60
15554;DHT22;7878;44.632;10.942;2022-08-26T06:36:28;26.70;96.60
15554;DHT22;7878;44.632;10.942;2022-08-26T06:38:58;26.70;96.70
15554;DHT22;7878;44.632;10.942;2022-08-26T06:41:24;26.70;96.40
15554;DHT22;7878;44.632;10.942;2022-08-26T06:43:50;26.80;96.60
15554;DHT22;7878;44.632;10.942;2022-08-26T06:46:17;26.80;96.60
15554;DHT22;7878;44.632;10.942;2022-08-26T06:48:44;26.80;96.40
15554;DHT22;7878;44.632;10.942;2022-08-26T06:51:31;26.80;96.40
15554;DHT22;7878;44.632;10.942;2022-08-26T06:53:58;26.80;96.30
15554;DHT22;7878;44.632;10.942;2022-08-26T06:56:27;26.80;96.30
15554;DHT22;7878;44.632;10.942;2022-08-26T06:58:53;26.80;96.30
15554;DHT22;7878;44.632;10.942;2022-08-26T07:01:24;26.80;96.00
15554;DHT22;7878;44.632;10.942;2022-08-26T07:03:52;26.90;96.20
15554;DHT22;7878;44.632;10.942;2022-08-26T07:06:19;26.90;96.00
15554;DHT22;7878;44.632;10.942;2022-08-26T07:08:49;27.00;96.00
15554;DHT22;7878;44.632;10.942;2022-08-26T07:11:15;27.00;96.20
15554;DHT22;7878;44.632;10.942;2022-08-26T07:13:41;27.10;96.00
15554;DHT22;7878;44.632;10.942;2022-08-26T07:16:09;27.20;96.10
15554;DHT22;7878;44.632;10.942;2022-08-26T07:18:36;27.20;95.90
15554;DHT22;7878;44.632;10.942;2022-08-26T07:21:04;27.30;96.20
15554;DHT22;7878;44.632;10.942;2022-08-26T07:23:31;27.30;96.10
15554;DHT22;7878;44.632;10.942;2022-08-26T07:25:57;27.40;96.00
15554;DHT22;7878;44.632;10.942;2022-08-26T07:28:23;27.50;96.10
15554;DHT22;7878;44.632;10.942;2022-08-26T07:30:49;27.50;96.00
15554;DHT22;7878;44.632;10.942;2022-08-26T07:33:15;27.60;96.00
15554;DHT22;7878;44.632;10.942;2022-08-26T07:35:43;27.70;96.00
15554;DHT22;7878;44.632;10.942;2022-08-26T07:38:09;27.70;96.00
15554;DHT22;7878;44.632;10.942;2022-08-26T07:40:35;27.80;95.90
15554;DHT22;7878;44.632;10.942;2022-08-26T07:43:01;27.90;95.90
15554;DHT22;7878;44.632;10.942;2022-08-26T07:45:26;27.90;95.90
15554;DHT22;7878;44.632;10.942;2022-08-26T07:47:53;28.00;96.00
15554;DHT22;7878;44.632;10.942;2022-08-26T07:50:18;28.10;96.00
15554;DHT22;7878;44.632;10.942;2022-08-26T07:52:47;28.20;96.00
15554;DHT22;7878;44.632;10.942;2022-08-26T07:55:13;28.30;95.80
15554;DHT22;7878;44.632;10.942;2022-08-26T07:57:38;28.30;95.80
15554;DHT22;7878;44.632;10.942;2022-08-26T08:00:07;28.40;95.90
15554;DHT22;7878;44.632;10.942;2022-08-26T08:02:33;28.60;95.80
15554;DHT22;7878;44.632;10.942;2022-08-26T08:04:59;28.80;95.80
15554;DHT22;7878;44.632;10.942;2022-08-26T08:07:26;28.80;95.60
15554;DHT22;7878;44.632;10.942;2022-08-26T08:09:51;28.90;95.50
15554;DHT22;7878;44.632;10.942;2022-08-26T08:12:18;29.00;95.60
15554;DHT22;7878;44.632;10.942;2022-08-26T08:14:44;29.00;95.60
15554;DHT22;7878;44.632;10.942;2022-08-26T08:17:12;29.00;95.60
15554;DHT22;7878;44.632;10.942;2022-08-26T08:19:39;29.10;95.60
15554;DHT22;7878;44.632;10.942;2022-08-26T08:22:05;29.30;95.60
15554;DHT22;7878;44.632;10.942;2022-08-26T08:24:31;29.50;95.60
15554;DHT22;7878;44.632;10.942;2022-08-26T08:26:59;29.80;95.30
15554;DHT22;7878;44.632;10.942;2022-08-26T08:29:25;30.20;95.10
15554;DHT22;7878;44.632;10.942;2022-08-26T08:31:54;30.70;95.10
15554;DHT22;7878;44.632;10.942;2022-08-26T08:34:20;31.10;94.80
15554;DHT22;7878;44.632;10.942;2022-08-26T08:36:46;31.30;94.60
15554;DHT22;7878;44.632;10.942;2022-08-26T08:39:12;31.20;94.80
15554;DHT22;7878;44.632;10.942;2022-08-26T08:44:18;31.00;94.40
15554;DHT22;7878;44.632;10.942;2022-08-26T08:46:51;30.80;94.90
15554;DHT22;7878;44.632;10.942;2022-08-26T08:49:19;30.70;94.60
15554;DHT22;7878;44.632;10.942;2022-08-26T08:51:51;30.70;94.60
15554;DHT22;7878;44.632;10.942;2022-08-26T08:54:18;30.50;94.50
15554;DHT22;7878;44.632;10.942;2022-08-26T08:57:08;30.60;94.80
15554;DHT22;7878;44.632;10.942;2022-08-26T08:59:44;30.50;94.40
15554;DHT22;7878;44.632;10.942;2022-08-26T09:02:30;30.50;95.00
15554;DHT22;7878;44.632;10.942;2022-08-26T09:05:17;30.50;94.50
15554;DHT22;7878;44.632;10.942;2022-08-26T09:08:15;30.50;94.70
15554;DHT22;7878;44.632;10.942;2022-08-26T09:11:00;30.50;94.40
15554;DHT22;7878;44.632;10.942;2022-08-26T09:13:26;30.50;94.60
15554;DHT22;7878;44.632;10.942;2022-08-26T09:16:12;30.50;94.60
15554;DHT22;7878;44.632;10.942;2022-08-26T09:21:19;30.40;93.90
15554;DHT22;7878;44.632;10.942;2022-08-26T09:23:45;30.40;94.00
15554;DHT22;7878;44.632;10.942;2022-08-26T09:28:45;30.40;93.90
15554;DHT22;7878;44.632;10.942;2022-08-26T09:31:22;30.70;93.90
15554;DHT22;7878;44.632;10.942;2022-08-26T09:36:37;31.00;93.20
15554;DHT22;7878;44.632;10.942;2022-08-26T09:39:23;30.90;93.30
15554;DHT22;7878;44.632;10.942;2022-08-26T09:42:20;30.90;93.70
15554;DHT22;7878;44.632;10.942;2022-08-26T09:47:31;30.80;93.60
15554;DHT22;7878;44.632;10.942;2022-08-26T09:53:16;31.00;93.30
15554;DHT22;7878;44.632;10.942;2022-08-26T09:55:45;31.00;93.20
15554;DHT22;7878;44.632;10.942;2022-08-26T09:58:33;31.00;93.80
15554;DHT22;7878;44.632;10.942;2022-08-26T10:01:02;31.00;92.70
15554;DHT22;7878;44.632;10.942;2022-08-26T10:03:30;31.00;93.60
15554;DHT22;7878;44.632;10.942;2022-08-26T10:08:52;31.10;92.70
15554;DHT22;7878;44.632;10.942;2022-08-26T10:11:55;31.40;92.90
15554;DHT22;7878;44.632;10.942;2022-08-26T10:14:44;31.40;92.10
15554;DHT22;7878;44.632;10.942;2022-08-26T10:17:27;31.50;91.60
15554;DHT22;7878;44.632;10.942;2022-08-26T10:19:58;31.50;91.60
15554;DHT22;7878;44.632;10.942;2022-08-26T10:23:04;31.60;92.80
15554;DHT22;7878;44.632;10.942;2022-08-26T10:25:36;31.70;91.50
15554;DHT22;7878;44.632;10.942;2022-08-26T10:28:08;31.70;92.90
15554;DHT22;7878;44.632;10.942;2022-08-26T10:30:54;31.70;92.10
15554;DHT22;7878;44.632;10.942;2022-08-26T10:33:21;31.60;91.50
15554;DHT22;7878;44.632;10.942;2022-08-26T10:35:53;31.60;92.50
15554;DHT22;7878;44.632;10.942;2022-08-26T10:38:26;31.60;91.90
15554;DHT22;7878;44.632;10.942;2022-08-26T10:41:08;31.60;92.10
15554;DHT22;7878;44.632;10.942;2022-08-26T10:43:49;31.50;92.20
15554;DHT22;7878;44.632;10.942;2022-08-26T10:46:19;31.60;92.50
15554;DHT22;7878;44.632;10.942;2022-08-26T10:48:53;31.60;92.60
15554;DHT22;7878;44.632;10.942;2022-08-26T10:51:27;31.70;92.40
15554;DHT22;7878;44.632;10.942;2022-08-26T10:59:11;32.20;91.80
15554;DHT22;7878;44.632;10.942;2022-08-26T11:04:41;33.20;90.70
15554;DHT22;7878;44.632;10.942;2022-08-26T11:10:00;33.40;89.80
15554;DHT22;7878;44.632;10.942;2022-08-26T11:15:04;33.80;89.70
15554;DHT22;7878;44.632;10.942;2022-08-26T11:28:46;40.70;79.90
15554;DHT22;7878;44.632;10.942;2022-08-26T11:33:52;42.70;79.70
15554;DHT22;7878;44.632;10.942;2022-08-26T11:36:37;43.10;77.90
15554;DHT22;7878;44.632;10.942;2022-08-26T11:39:15;43.00;68.20
15554;DHT22;7878;44.632;10.942;2022-08-26T11:41:44;42.20;70.30
15554;DHT22;7878;44.632;10.942;2022-08-26T11:44:10;40.60;80.60
15554;DHT22;7878;44.632;10.942;2022-08-26T11:46:35;39.20;78.80
15554;DHT22;7878;44.632;10.942;2022-08-26T11:49:06;38.00;79.30
15554;DHT22;7878;44.632;10.942;2022-08-26T11:51:33;37.10;77.70
15554;DHT22;7878;44.632;10.942;2022-08-26T11:54:17;36.50;81.70
15554;DHT22;7878;44.632;10.942;2022-08-26T11:56:45;36.20;78.20
15554;DHT22;7878;44.632;10.942;2022-08-26T11:59:16;36.00;80.80
15554;DHT22;7878;44.632;10.942;2022-08-26T12:01:47;35.90;80.80
15554;DHT22;7878;44.632;10.942;2022-08-26T12:04:30;35.70;82.00
15554;DHT22;7878;44.632;10.942;2022-08-26T12:06:58;35.60;78.40
15554;DHT22;7878;44.632;10.942;2022-08-26T12:09:33;35.40;82.70
15554;DHT22;7878;44.632;10.942;2022-08-26T12:12:33;35.30;80.20
15554;DHT22;7878;44.632;10.942;2022-08-26T12:15:15;35.10;75.50
15554;DHT22;7878;44.632;10.942;2022-08-26T12:17:42;35.00;78.80
15554;DHT22;7878;44.632;10.942;2022-08-26T12:20:35;34.80;82.10
15554;DHT22;7878;44.632;10.942;2022-08-26T12:23:24;34.70;79.50
15554;DHT22;7878;44.632;10.942;2022-08-26T12:25:51;34.60;80.20
15554;DHT22;7878;44.632;10.942;2022-08-26T12:28:18;34.50;81.60
15554;DHT22;7878;44.632;10.942;2022-08-26T12:31:00;34.50;81.90
15554;DHT22;7878;44.632;10.942;2022-08-26T12:33:26;34.50;80.40
15554;DHT22;7878;44.632;10.942;2022-08-26T12:35:52;34.50;82.80
15554;DHT22;7878;44.632;10.942;2022-08-26T12:38:18;34.40;82.00
15554;DHT22;7878;44.632;10.942;2022-08-26T12:40:46;34.30;82.60
15554;DHT22;7878;44.632;10.942;2022-08-26T12:43:14;34.40;82.80
15554;DHT22;7878;44.632;10.942;2022-08-26T12:45:59;34.40;82.40
15554;DHT22;7878;44.632;10.942;2022-08-26T12:48:30;34.30;82.30
15554;DHT22;7878;44.632;10.942;2022-08-26T12:50:57;34.20;81.10
15554;DHT22;7878;44.632;10.942;2022-08-26T12:53:25;34.10;82.40
15554;DHT22;7878;44.632;10.942;2022-08-26T12:55:59;33.90;82.00
15554;DHT22;7878;44.632;10.942;2022-08-26T12:58:33;33.90;81.80
15554;DHT22;7878;44.632;10.942;2022-08-26T13:08:38;33.70;79.70
15554;DHT22;7878;44.632;10.942;2022-08-26T13:11:15;33.70;80.00
15554;DHT22;7878;44.632;10.942;2022-08-26T13:13:49;33.60;80.30
15554;DHT22;7878;44.632;10.942;2022-08-26T13:16:16;33.50;82.10
15554;DHT22;7878;44.632;10.942;2022-08-26T13:18:42;33.50;81.60
15554;DHT22;7878;44.632;10.942;2022-08-26T13:21:17;33.40;82.40
15554;DHT22;7878;44.632;10.942;2022-08-26T13:23:43;33.50;80.70
15554;DHT22;7878;44.632;10.942;2022-08-26T13:26:09;33.40;81.90
15554;DHT22;7878;44.632;10.942;2022-08-26T13:28:35;33.50;81.10
15554;DHT22;7878;44.632;10.942;2022-08-26T13:31:02;33.50;81.20
15554;DHT22;7878;44.632;10.942;2022-08-26T13:33:29;33.50;81.30
15554;DHT22;7878;44.632;10.942;2022-08-26T13:35:55;33.40;81.90
15554;DHT22;7878;44.632;10.942;2022-08-26T13:38:21;33.30;81.70
15554;DHT22;7878;44.632;10.942;2022-08-26T13:40:47;33.30;81.40
15554;DHT22;7878;44.632;10.942;2022-08-26T13:43:13;33.20;81.40
15554;DHT22;7878;44.632;10.942;2022-08-26T13:45:39;33.20;80.90
15554;DHT22;7878;44.632;10.942;2022-08-26T13:48:06;33.20;81.50
15554;DHT22;7878;44.632;10.942;2022-08-26T13:50:33;33.20;81.70
15554;DHT22;7878;44.632;10.942;2022-08-26T13:52:59;33.20;81.70
15554;DHT22;7878;44.632;10.942;2022-08-26T13:55:25;33.20;81.40
15554;DHT22;7878;44.632;10.942;2022-08-26T13:57:52;33.10;80.60
15554;DHT22;7878;44.632;10.942;2022-08-26T14:00:18;33.10;80.30
15554;DHT22;7878;44.632;10.942;2022-08-26T14:02:45;33.10;80.90
15554;DHT22;7878;44.632;10.942;2022-08-26T14:05:11;33.00;81.00
15554;DHT22;7878;44.632;10.942;2022-08-26T14:07:38;33.00;80.40
15554;DHT22;7878;44.632;10.942;2022-08-26T14:10:05;32.90;80.70
15554;DHT22;7878;44.632;10.942;2022-08-26T14:12:31;32.80;80.90
15554;DHT22;7878;44.632;10.942;2022-08-26T14:14:57;32.80;80.80
15554;DHT22;7878;44.632;10.942;2022-08-26T14:17:23;32.80;81.10
15554;DHT22;7878;44.632;10.942;2022-08-26T14:19:50;32.80;81.10
15554;DHT22;7878;44.632;10.942;2022-08-26T14:22:19;32.70;81.20
15554;DHT22;7878;44.632;10.942;2022-08-26T14:24:45;32.70;80.80
15554;DHT22;7878;44.632;10.942;2022-08-26T14:27:11;32.60;80.90
15554;DHT22;7878;44.632;10.942;2022-08-26T14:29:37;32.70;81.00
15554;DHT22;7878;44.632;10.942;2022-08-26T14:32:07;32.70;80.80
15554;DHT22;7878;44.632;10.942;2022-08-26T14:34:36;32.60;80.30
15554;DHT22;7878;44.632;10.942;2022-08-26T14:37:03;32.60;80.10
15554;DHT22;7878;44.632;10.942;2022-08-26T14:39:32;32.60;80.70
15554;DHT22;7878;44.632;10.942;2022-08-26T14:41:58;32.60;80.70
15554;DHT22;7878;44.632;10.942;2022-08-26T14:44:27;32.60;80.50
15554;DHT22;7878;44.632;10.942;2022-08-26T14:46:54;32.80;81.20
15554;DHT22;7878;44.632;10.942;2022-08-26T14:49:22;32.80;81.10
15554;DHT22;7878;44.632;10.942;2022-08-26T14:51:49;32.80;80.80
15554;DHT22;7878;44.632;10.942;2022-08-26T14:54:16;32.90;81.30
15554;DHT22;7878;44.632;10.942;2022-08-26T14:56:48;33.00;80.70
15554;DHT22;7878;44.632;10.942;2022-08-26T14:59:28;33.00;81.20
15554;DHT22;7878;44.632;10.942;2022-08-26T15:01:54;33.00;80.30
15554;DHT22;7878;44.632;10.942;2022-08-26T15:04:21;33.10;80.60
15554;DHT22;7878;44.632;10.942;2022-08-26T15:06:47;33.00;81.60
15554;DHT22;7878;44.632;10.942;2022-08-26T15:09:14;33.00;80.20
15554;DHT22;7878;44.632;10.942;2022-08-26T15:11:40;33.00;80.10
15554;DHT22;7878;44.632;10.942;2022-08-26T15:14:06;32.90;80.80
15554;DHT22;7878;44.632;10.942;2022-08-26T15:16:32;32.90;81.00
15554;DHT22;7878;44.632;10.942;2022-08-26T15:18:58;32.90;81.20
15554;DHT22;7878;44.632;10.942;2022-08-26T15:21:24;32.80;81.20
15554;DHT22;7878;44.632;10.942;2022-08-26T15:23:51;32.80;81.10
15554;DHT22;7878;44.632;10.942;2022-08-26T15:26:18;32.80;81.20
15554;DHT22;7878;44.632;10.942;2022-08-26T15:28:44;32.70;81.00
15554;DHT22;7878;44.632;10.942;2022-08-26T15:31:10;32.70;81.10
15554;DHT22;7878;44.632;10.942;2022-08-26T15:33:36;32.70;80.80
15554;DHT22;7878;44.632;10.942;2022-08-26T15:36:03;32.70;80.90
15554;DHT22;7878;44.632;10.942;2022-08-26T15:38:36;32.60;80.80
15554;DHT22;7878;44.632;10.942;2022-08-26T15:41:03;32.60;80.70
15554;DHT22;7878;44.632;10.942;2022-08-26T15:43:29;32.60;80.50
15554;DHT22;7878;44.632;10.942;2022-08-26T15:45:56;32.60;80.90
15554;DHT22;7878;44.632;10.942;2022-08-26T15:48:22;32.50;81.00
15554;DHT22;7878;44.632;10.942;2022-08-26T15:50:58;32.50;81.00
15554;DHT22;7878;44.632;10.942;2022-08-26T15:53:25;32.50;80.30
15554;DHT22;7878;44.632;10.942;2022-08-26T15:55:53;32.40;81.20
15554;DHT22;7878;44.632;10.942;2022-08-26T15:58:20;32.40;81.20
15554;DHT22;7878;44.632;10.942;2022-08-26T16:00:45;32.40;81.40
15554;DHT22;7878;44.632;10.942;2022-08-26T16:03:11;32.30;81.60
15554;DHT22;7878;44.632;10.942;2022-08-26T16:05:39;32.30;81.70
15554;DHT22;7878;44.632;10.942;2022-08-26T16:08:06;32.30;81.70
15554;DHT22;7878;44.632;10.942;2022-08-26T16:10:36;32.20;81.70
15554;DHT22;7878;44.632;10.942;2022-08-26T16:13:03;32.20;81.60
15554;DHT22;7878;44.632;10.942;2022-08-26T16:15:31;32.20;81.90
15554;DHT22;7878;44.632;10.942;2022-08-26T16:18:00;32.10;81.80
15554;DHT22;7878;44.632;10.942;2022-08-26T16:20:31;32.10;82.00
15554;DHT22;7878;44.632;10.942;2022-08-26T16:22:58;32.00;82.70
15554;DHT22;7878;44.632;10.942;2022-08-26T16:25:25;32.00;82.50
15554;DHT22;7878;44.632;10.942;2022-08-26T16:27:52;32.00;82.70
15554;DHT22;7878;44.632;10.942;2022-08-26T16:30:18;31.90;82.50
15554;DHT22;7878;44.632;10.942;2022-08-26T16:32:45;31.90;82.40
15554;DHT22;7878;44.632;10.942;2022-08-26T16:35:11;31.90;82.50
15554;DHT22;7878;44.632;10.942;2022-08-26T16:37:37;31.90;82.50
15554;DHT22;7878;44.632;10.942;2022-08-26T16:40:04;31.90;82.60